createdAt,value
2023-04-16T00:01:43.294Z,102433.00
2023-04-16T00:04:12.111Z,102433.00
2023-04-16T00:06:40.853Z,102438.00
2023-04-16T00:09:09.528Z,102438.00
2023-04-16T00:11:38.277Z,102433.00
2023-04-16T00:14:07.008Z,102434.00
2023-04-16T00:16:39.088Z,102428.00
2023-04-16T00:19:10.113Z,102442.00
2023-04-16T00:21:39.625Z,102432.00
2023-04-16T00:24:11.561Z,102432.00
2023-04-16T00:26:58.841Z,102434.00
2023-04-16T00:29:29.162Z,102427.00
2023-04-16T00:32:00.563Z,102424.00
2023-04-16T00:34:29.243Z,102423.00
2023-04-16T00:36:59.013Z,102425.00
2023-04-16T00:39:27.685Z,102427.00
2023-04-16T00:41:56.345Z,102429.00
2023-04-16T00:44:24.962Z,102422.00
2023-04-16T00:46:55.595Z,102417.00
2023-04-16T00:49:26.353Z,102423.00
2023-04-16T00:51:55.049Z,102435.00
2023-04-16T00:54:26.472Z,102429.00
2023-04-16T00:56:57.626Z,102429.00
2023-04-16T00:59:30.020Z,102428.00
2023-04-16T01:02:02.980Z,102420.00
2023-04-16T01:04:43.089Z,102423.00
2023-04-16T01:07:12.594Z,102426.00
2023-04-16T01:09:43.924Z,102433.00
2023-04-16T01:12:20.424Z,102428.00
2023-04-16T01:14:51.685Z,102422.00
2023-04-16T01:17:23.245Z,102418.00
2023-04-16T01:19:55.308Z,102419.00
2023-04-16T01:22:33.412Z,102408.00
2023-04-16T01:25:03.299Z,102415.00
2023-04-16T01:27:32.585Z,102412.00
2023-04-16T01:30:01.156Z,102407.00
2023-04-16T01:32:41.406Z,102407.00
2023-04-16T01:35:10.275Z,102407.00
2023-04-16T01:37:40.277Z,102410.00
2023-04-16T01:40:10.228Z,102403.00
2023-04-16T01:42:39.417Z,102409.00
2023-04-16T01:45:09.637Z,102410.00
2023-04-16T01:47:38.436Z,102404.00
2023-04-16T01:50:08.720Z,102407.00
2023-04-16T01:52:37.340Z,102396.00
2023-04-16T01:55:08.989Z,102407.00
2023-04-16T01:57:37.618Z,102394.00
2023-04-16T02:00:08.565Z,102397.00
2023-04-16T02:02:47.384Z,102387.00
2023-04-16T02:05:22.249Z,102389.00
2023-04-16T02:07:50.883Z,102390.00
2023-04-16T02:10:20.909Z,102389.00
2023-04-16T02:12:49.946Z,102390.00
2023-04-16T02:15:18.805Z,102378.00
2023-04-16T02:17:48.974Z,102385.00
2023-04-16T02:20:18.234Z,102381.00
2023-04-16T02:22:55.172Z,102369.00
2023-04-16T02:25:27.272Z,102371.00
2023-04-16T02:27:57.722Z,102377.00
2023-04-16T02:30:41.124Z,102367.00
2023-04-16T02:33:12.923Z,102375.00
2023-04-16T02:35:49.589Z,102374.00
2023-04-16T02:38:18.266Z,102381.00
2023-04-16T02:40:48.269Z,102372.00
2023-04-16T02:43:18.282Z,102376.00
2023-04-16T02:45:47.110Z,102372.00
2023-04-16T02:48:15.887Z,102374.00
2023-04-16T02:50:44.437Z,102374.00
2023-04-16T02:53:13.076Z,102372.00
2023-04-16T02:55:41.669Z,102369.00
2023-04-16T02:58:11.638Z,102370.00
2023-04-16T03:00:40.271Z,102368.00
2023-04-16T03:03:08.982Z,102373.00
2023-04-16T03:05:39.686Z,102376.00
2023-04-16T03:08:09.238Z,102377.00
2023-04-16T03:10:38.007Z,102372.00
2023-04-16T03:13:06.803Z,102374.00
2023-04-16T03:15:36.894Z,102378.00
2023-04-16T03:18:05.625Z,102383.00
2023-04-16T03:20:34.776Z,102376.00
2023-04-16T03:23:03.335Z,102387.00
2023-04-16T03:25:31.975Z,102386.00
2023-04-16T03:28:01.014Z,102386.00
2023-04-16T03:30:29.698Z,102384.00
2023-04-16T03:32:59.640Z,102383.00
2023-04-16T03:35:28.534Z,102372.00
2023-04-16T03:37:57.379Z,102377.00
2023-04-16T03:40:26.584Z,102375.00
2023-04-16T03:42:55.836Z,102367.00
2023-04-16T03:45:25.058Z,102373.00
2023-04-16T03:47:54.804Z,102356.00
2023-04-16T03:50:27.542Z,102369.00
2023-04-16T03:52:56.401Z,102362.00
2023-04-16T03:55:25.622Z,102364.00
2023-04-16T03:57:54.746Z,102370.00
2023-04-16T04:00:23.696Z,102364.00
2023-04-16T04:03:11.539Z,102361.00
2023-04-16T04:06:01.000Z,102361.00
2023-04-16T04:08:31.996Z,102354.00
2023-04-16T04:11:00.572Z,102354.00
2023-04-16T04:13:29.823Z,102361.00
2023-04-16T04:15:59.974Z,102350.00
2023-04-16T04:18:29.689Z,102350.00
2023-04-16T04:20:59.820Z,102351.00
2023-04-16T04:23:31.677Z,102350.00
2023-04-16T04:26:03.831Z,102348.00
2023-04-16T04:28:33.127Z,102346.00
2023-04-16T04:31:02.698Z,102350.00
2023-04-16T04:33:32.736Z,102346.00
2023-04-16T04:36:02.821Z,102355.00
2023-04-16T04:38:31.783Z,102344.00
2023-04-16T04:41:00.951Z,102343.00
2023-04-16T04:43:33.910Z,102345.00
2023-04-16T04:46:02.610Z,102342.00
2023-04-16T04:48:32.488Z,102342.00
2023-04-16T04:51:05.281Z,102346.00
2023-04-16T04:53:34.317Z,102347.00
2023-04-16T04:56:12.437Z,102352.00
2023-04-16T04:58:42.547Z,102345.00
2023-04-16T05:01:11.318Z,102349.00
2023-04-16T05:03:40.114Z,102350.00
2023-04-16T05:06:10.147Z,102347.00
2023-04-16T05:08:38.796Z,102351.00
2023-04-16T05:11:07.455Z,102345.00
2023-04-16T05:13:36.183Z,102347.00
2023-04-16T05:16:04.928Z,102341.00
2023-04-16T05:18:33.524Z,102341.00
2023-04-16T05:21:02.197Z,102342.00
2023-04-16T05:23:32.366Z,102346.00
2023-04-16T05:26:00.919Z,102342.00
2023-04-16T05:28:29.694Z,102345.00
2023-04-16T05:30:58.329Z,102341.00
2023-04-16T05:33:26.967Z,102343.00
2023-04-16T05:35:55.850Z,102336.00
2023-04-16T05:38:24.505Z,102337.00
2023-04-16T05:40:54.580Z,102340.00
2023-04-16T05:43:23.154Z,102328.00
2023-04-16T05:45:51.912Z,102336.00
2023-04-16T05:48:21.155Z,102333.00
2023-04-16T05:50:51.422Z,102326.00
2023-04-16T05:53:20.254Z,102332.00
2023-04-16T05:55:49.047Z,102323.00
2023-04-16T05:58:19.145Z,102334.00
2023-04-16T06:00:47.862Z,102328.00
2023-04-16T06:03:16.697Z,102331.00
2023-04-16T06:05:46.128Z,102324.00
2023-04-16T06:08:14.799Z,102335.00
2023-04-16T06:10:43.508Z,102329.00
2023-04-16T06:13:12.164Z,102328.00
2023-04-16T06:15:42.202Z,102322.00
2023-04-16T06:18:10.974Z,102330.00
2023-04-16T06:20:39.713Z,102319.00
2023-04-16T06:23:08.402Z,102326.00
2023-04-16T06:25:37.144Z,102328.00
2023-04-16T06:28:06.154Z,102323.00
2023-04-16T06:30:35.357Z,102327.00
2023-04-16T06:33:05.917Z,102327.00
2023-04-16T06:35:34.573Z,102327.00
2023-04-16T06:38:03.247Z,102329.00
2023-04-16T06:40:31.944Z,102322.00
2023-04-16T06:43:01.246Z,102323.00
2023-04-16T06:45:30.061Z,102319.00
2023-04-16T06:48:01.900Z,102317.00
2023-04-16T06:50:33.562Z,102321.00
2023-04-16T06:53:14.719Z,102318.00
2023-04-16T06:55:44.949Z,102313.00
2023-04-16T06:58:20.010Z,102310.00
2023-04-16T07:00:54.310Z,102310.00
2023-04-16T07:03:52.008Z,102309.00
2023-04-16T07:06:33.359Z,102304.00
2023-04-16T07:09:04.365Z,102305.00
2023-04-16T07:11:34.354Z,102311.00
2023-04-16T07:14:07.509Z,102314.00
2023-04-16T07:16:37.811Z,102316.00
2023-04-16T07:19:27.481Z,102313.00
2023-04-16T07:21:59.094Z,102312.00
2023-04-16T07:24:31.658Z,102314.00
2023-04-16T07:27:04.714Z,102316.00
2023-04-16T07:29:35.905Z,102310.00
2023-04-16T07:32:05.491Z,102317.00
2023-04-16T07:34:38.300Z,102315.00
2023-04-16T07:37:11.104Z,102314.00
2023-04-16T07:39:42.803Z,102321.00
2023-04-16T07:42:11.443Z,102323.00
2023-04-16T07:44:41.210Z,102317.00
2023-04-16T07:47:09.778Z,102325.00
2023-04-16T07:49:38.436Z,102320.00
2023-04-16T07:52:08.400Z,102319.00
2023-04-16T07:54:37.008Z,102327.00
2023-04-16T07:57:05.902Z,102320.00
2023-04-16T07:59:34.604Z,102321.00
2023-04-16T08:02:03.401Z,102323.00
2023-04-16T08:04:32.226Z,102324.00
2023-04-16T08:07:00.896Z,102326.00
2023-04-16T08:09:30.979Z,102320.00
2023-04-16T08:12:01.178Z,102315.00
2023-04-16T08:14:29.893Z,102316.00
2023-04-16T08:16:58.460Z,102320.00
2023-04-16T08:19:27.066Z,102320.00
2023-04-16T08:21:57.792Z,102311.00
2023-04-16T08:24:26.647Z,102304.00
2023-04-16T08:27:02.431Z,102309.00
2023-04-16T08:29:40.153Z,102308.00
2023-04-16T08:32:10.210Z,102310.00
2023-04-16T08:34:39.041Z,102299.00
2023-04-16T08:37:07.671Z,102306.00
2023-04-16T08:39:36.468Z,102311.00
2023-04-16T08:42:13.253Z,102310.00
2023-04-16T08:44:49.578Z,102312.00
2023-04-16T08:47:18.936Z,102302.00
2023-04-16T08:49:47.876Z,102300.00
2023-04-16T08:52:21.331Z,102302.00
2023-04-16T08:54:59.919Z,102310.00
2023-04-16T08:57:39.991Z,102308.00
2023-04-16T09:00:11.031Z,102308.00
2023-04-16T09:02:40.641Z,102302.00
2023-04-16T09:05:13.800Z,102307.00
2023-04-16T09:07:44.123Z,102305.00
2023-04-16T09:10:17.237Z,102300.00
2023-04-16T09:12:47.375Z,102305.00
2023-04-16T09:15:16.018Z,102294.00
2023-04-16T09:17:44.551Z,102302.00
2023-04-16T09:20:13.884Z,102296.00
2023-04-16T09:22:42.687Z,102302.00
2023-04-16T09:25:12.612Z,102298.00
2023-04-16T09:27:41.708Z,102304.00
2023-04-16T09:30:26.228Z,102297.00
2023-04-16T09:33:18.074Z,102299.00
2023-04-16T09:35:56.516Z,102293.00
2023-04-16T09:38:58.339Z,102293.00
2023-04-16T09:41:30.055Z,102295.00
2023-04-16T09:44:00.600Z,102290.00
2023-04-16T09:46:35.255Z,102290.00
2023-04-16T09:49:10.701Z,102279.00
2023-04-16T09:51:42.013Z,102292.00
2023-04-16T09:54:11.287Z,102294.00
2023-04-16T09:56:43.749Z,102292.00
2023-04-16T09:59:19.282Z,102288.00
2023-04-16T10:01:50.580Z,102291.00
2023-04-16T10:04:19.460Z,102293.00
2023-04-16T10:07:05.551Z,102283.00
2023-04-16T10:09:38.540Z,102286.00
2023-04-16T10:12:08.029Z,102286.00
2023-04-16T10:14:37.184Z,102284.00
2023-04-16T10:17:07.866Z,102287.00
2023-04-16T10:19:37.341Z,102285.00
2023-04-16T10:22:06.734Z,102278.00
2023-04-16T10:24:36.801Z,102281.00
2023-04-16T10:27:05.556Z,102287.00
2023-04-16T10:29:35.297Z,102289.00
2023-04-16T10:32:07.341Z,102282.00
2023-04-16T10:34:37.307Z,102275.00
2023-04-16T10:37:05.895Z,102284.00
2023-04-16T10:39:38.532Z,102275.00
2023-04-16T10:42:12.921Z,102274.00
2023-04-16T10:44:45.284Z,102274.00
2023-04-16T10:47:19.021Z,102275.00
2023-04-16T10:49:49.556Z,102272.00
2023-04-16T10:52:18.612Z,102270.00
2023-04-16T10:54:49.056Z,102259.00
2023-04-16T10:57:19.393Z,102271.00
2023-04-16T10:59:51.984Z,102269.00
2023-04-16T11:02:31.250Z,102271.00
2023-04-16T11:05:00.228Z,102273.00
2023-04-16T11:07:36.090Z,102269.00
2023-04-16T11:10:07.876Z,102277.00
2023-04-16T11:12:38.773Z,102279.00
2023-04-16T11:15:10.479Z,102275.00
2023-04-16T11:17:42.721Z,102278.00
2023-04-16T11:20:20.519Z,102285.00
2023-04-16T11:22:50.470Z,102284.00
2023-04-16T11:25:22.961Z,102282.00
2023-04-16T11:27:52.672Z,102277.00
2023-04-16T11:30:30.564Z,102288.00
2023-04-16T11:33:00.910Z,102283.00
2023-04-16T11:35:29.581Z,102283.00
2023-04-16T11:37:59.124Z,102280.00
2023-04-16T11:40:31.860Z,102274.00
2023-04-16T11:43:04.376Z,102274.00
2023-04-16T11:45:33.032Z,102267.00
2023-04-16T11:48:03.091Z,102272.00
2023-04-16T11:50:31.832Z,102267.00
2023-04-16T11:53:07.091Z,102266.00
2023-04-16T11:55:46.017Z,102262.00
2023-04-16T11:58:16.516Z,102260.00
2023-04-16T12:00:45.995Z,102255.00
2023-04-16T12:03:16.494Z,102257.00
2023-04-16T12:05:45.266Z,102261.00
2023-04-16T12:08:14.199Z,102257.00
2023-04-16T12:10:56.097Z,102253.00
2023-04-16T12:13:24.720Z,102255.00
2023-04-16T12:15:55.048Z,102255.00
2023-04-16T12:18:27.367Z,102251.00
2023-04-16T12:20:56.123Z,102251.00
2023-04-16T12:23:27.058Z,102248.00
2023-04-16T12:25:56.348Z,102254.00
2023-04-16T12:28:33.718Z,102248.00
2023-04-16T12:31:03.458Z,102251.00
2023-04-16T12:33:33.669Z,102251.00
2023-04-16T12:36:04.734Z,102248.00
2023-04-16T12:38:33.351Z,102244.00
2023-04-16T12:41:02.498Z,102244.00
2023-04-16T12:43:31.321Z,102231.00
2023-04-16T12:46:00.789Z,102240.00
2023-04-16T12:48:38.676Z,102238.00
2023-04-16T12:51:10.303Z,102241.00
2023-04-16T12:53:38.961Z,102240.00
2023-04-16T12:56:07.983Z,102233.00
2023-04-16T12:58:36.785Z,102235.00
2023-04-16T13:01:05.373Z,102230.00
2023-04-16T13:03:37.330Z,102236.00
2023-04-16T13:06:06.635Z,102241.00
2023-04-16T13:08:35.426Z,102239.00
2023-04-16T13:11:04.575Z,102236.00
2023-04-16T13:13:33.179Z,102231.00
2023-04-16T13:16:04.182Z,102228.00
2023-04-16T13:18:34.236Z,102223.00
2023-04-16T13:21:03.131Z,102224.00
2023-04-16T13:23:31.968Z,102226.00
2023-04-16T13:26:00.733Z,102227.00
2023-04-16T13:28:29.398Z,102222.00
2023-04-16T13:30:59.045Z,102225.00
2023-04-16T13:33:28.262Z,102228.00
2023-04-16T13:35:58.363Z,102223.00
2023-04-16T13:38:28.331Z,102221.00
2023-04-16T13:40:57.555Z,102219.00
2023-04-16T13:43:28.467Z,102220.00
2023-04-16T13:45:58.340Z,102223.00
2023-04-16T13:48:30.195Z,102218.00
2023-04-16T13:51:16.602Z,102213.00
2023-04-16T13:53:45.998Z,102215.00
2023-04-16T13:56:14.612Z,102211.00
2023-04-16T13:58:43.534Z,102209.00
2023-04-16T14:01:13.044Z,102200.00
2023-04-16T14:03:42.102Z,102200.00
2023-04-16T14:06:12.857Z,102202.00
2023-04-16T14:08:41.626Z,102196.00
2023-04-16T14:11:10.346Z,102199.00
2023-04-16T14:13:38.986Z,102195.00
2023-04-16T14:16:07.918Z,102197.00
2023-04-16T14:18:41.102Z,102190.00
2023-04-16T14:21:11.156Z,102187.00
2023-04-16T14:23:39.813Z,102191.00
2023-04-16T14:26:08.493Z,102185.00
2023-04-16T14:28:37.281Z,102193.00
2023-04-16T14:31:05.890Z,102188.00
2023-04-16T14:33:34.582Z,102186.00
2023-04-16T14:36:03.531Z,102186.00
2023-04-16T14:38:33.690Z,102177.00
2023-04-16T14:41:02.389Z,102177.00
2023-04-16T14:43:31.078Z,102176.00
2023-04-16T14:46:00.035Z,102175.00
2023-04-16T14:48:28.784Z,102174.00
2023-04-16T14:51:00.355Z,102179.00
2023-04-16T14:53:29.872Z,102177.00
2023-04-16T14:55:59.896Z,102178.00
2023-04-16T14:58:28.736Z,102179.00
2023-04-16T15:00:57.515Z,102184.00
2023-04-16T15:03:26.517Z,102186.00
2023-04-16T15:05:59.337Z,102181.00
2023-04-16T15:08:31.836Z,102181.00
2023-04-16T15:11:03.745Z,102187.00
2023-04-16T15:13:34.738Z,102184.00
2023-04-16T15:16:07.093Z,102184.00
2023-04-16T15:18:38.189Z,102186.00
2023-04-16T15:21:12.729Z,102179.00
2023-04-16T15:24:04.397Z,102184.00
2023-04-16T15:26:43.523Z,102181.00
2023-04-16T15:29:14.993Z,102187.00
2023-04-16T15:31:43.766Z,102189.00
2023-04-16T15:34:12.481Z,102189.00
2023-04-16T15:36:41.166Z,102190.00
2023-04-16T15:39:10.334Z,102195.00
2023-04-16T15:41:53.333Z,102193.00
2023-04-16T15:44:40.773Z,102194.00
2023-04-16T15:47:09.712Z,102189.00
2023-04-16T15:49:40.417Z,102198.00
2023-04-16T15:52:09.735Z,102188.00
2023-04-16T15:54:40.234Z,102189.00
2023-04-16T15:57:09.034Z,102197.00
2023-04-16T15:59:39.251Z,102201.00
2023-04-16T16:02:15.724Z,102198.00
2023-04-16T16:04:46.346Z,102198.00
2023-04-16T16:07:15.851Z,102196.00
2023-04-16T16:09:44.655Z,102194.00
2023-04-16T16:12:19.041Z,102189.00
2023-04-16T16:14:49.519Z,102191.00
2023-04-16T16:17:19.190Z,102184.00
2023-04-16T16:19:48.091Z,102185.00
2023-04-16T16:22:20.532Z,102184.00
2023-04-16T16:24:51.043Z,102184.00
2023-04-16T16:27:19.860Z,102193.00
2023-04-16T16:29:49.917Z,102190.00
2023-04-16T16:32:18.680Z,102192.00
2023-04-16T16:34:47.313Z,102195.00
2023-04-16T16:37:16.390Z,102198.00
2023-04-16T16:39:44.980Z,102195.00
2023-04-16T16:42:14.186Z,102191.00
2023-04-16T16:44:42.742Z,102190.00
2023-04-16T16:47:12.723Z,102189.00
2023-04-16T16:49:41.331Z,102193.00
2023-04-16T16:52:09.911Z,102187.00
2023-04-16T16:54:38.573Z,102193.00
2023-04-16T16:57:07.183Z,102196.00
2023-04-16T16:59:35.847Z,102187.00
2023-04-16T17:02:04.511Z,102190.00
2023-04-16T17:04:36.822Z,102190.00
2023-04-16T17:07:06.399Z,102194.00
2023-04-16T17:09:35.123Z,102194.00
2023-04-16T17:12:03.830Z,102190.00
2023-04-16T17:14:33.118Z,102190.00
2023-04-16T17:17:01.845Z,102190.00
2023-04-16T17:19:30.519Z,102188.00
2023-04-16T17:22:00.948Z,102186.00
2023-04-16T17:24:29.673Z,102186.00
2023-04-16T17:26:58.562Z,102186.00
2023-04-16T17:29:28.346Z,102182.00
2023-04-16T17:31:57.281Z,102191.00
2023-04-16T17:34:33.805Z,102193.00
2023-04-16T17:37:04.972Z,102190.00
2023-04-16T17:39:33.689Z,102191.00
2023-04-16T17:42:04.027Z,102187.00
2023-04-16T17:44:32.778Z,102191.00
2023-04-16T17:47:02.235Z,102189.00
2023-04-16T17:49:31.543Z,102193.00
2023-04-16T17:52:00.222Z,102184.00
2023-04-16T17:54:30.266Z,102188.00
2023-04-16T17:56:58.905Z,102187.00
2023-04-16T17:59:27.557Z,102188.00
2023-04-16T18:01:56.737Z,102191.00
2023-04-16T18:04:25.663Z,102189.00
2023-04-16T18:06:54.430Z,102189.00
2023-04-16T18:09:23.148Z,102181.00
2023-04-16T18:11:53.167Z,102191.00
2023-04-16T18:14:21.760Z,102184.00
2023-04-16T18:16:50.872Z,102189.00
2023-04-16T18:19:19.508Z,102184.00
2023-04-16T18:21:48.363Z,102188.00
2023-04-16T18:24:16.930Z,102182.00
2023-04-16T18:26:46.991Z,102180.00
2023-04-16T18:29:18.152Z,102178.00
2023-04-16T18:31:47.422Z,102178.00
2023-04-16T18:34:16.115Z,102181.00
2023-04-16T18:36:44.711Z,102179.00
2023-04-16T18:39:13.376Z,102177.00
2023-04-16T18:41:44.700Z,102178.00
2023-04-16T18:44:13.362Z,102181.00
2023-04-16T18:46:43.623Z,102185.00
2023-04-16T18:49:12.870Z,102180.00
2023-04-16T18:51:42.368Z,102179.00
2023-04-16T18:54:11.041Z,102179.00
2023-04-16T18:56:39.788Z,102169.00
2023-04-16T18:59:08.563Z,102175.00
2023-04-16T19:01:37.313Z,102175.00
2023-04-16T19:04:07.657Z,102176.00
2023-04-16T19:06:37.214Z,102177.00
2023-04-16T19:09:06.208Z,102175.00
2023-04-16T19:11:34.879Z,102177.00
2023-04-16T19:14:05.419Z,102178.00
2023-04-16T19:16:34.076Z,102179.00
2023-04-16T19:19:02.710Z,102183.00
2023-04-16T19:21:32.733Z,102181.00
2023-04-16T19:24:01.418Z,102178.00
2023-04-16T19:26:30.163Z,102179.00
2023-04-16T19:28:58.854Z,102168.00
2023-04-16T19:31:29.669Z,102184.00
2023-04-16T19:33:58.395Z,102178.00
2023-04-16T19:36:27.275Z,102181.00
2023-04-16T19:38:57.218Z,102179.00
2023-04-16T19:41:25.953Z,102174.00
2023-04-16T19:43:56.109Z,102172.00
2023-04-16T19:46:24.843Z,102179.00
2023-04-16T19:48:53.478Z,102176.00
2023-04-16T19:51:22.130Z,102181.00
2023-04-16T19:53:50.870Z,102176.00
2023-04-16T19:56:20.911Z,102177.00
2023-04-16T19:58:49.639Z,102178.00
2023-04-16T20:01:18.348Z,102170.00
2023-04-16T20:03:47.101Z,102181.00
2023-04-16T20:06:17.488Z,102176.00
2023-04-16T20:08:46.253Z,102185.00
2023-04-16T20:11:14.869Z,102181.00
2023-04-16T20:13:47.472Z,102188.00
2023-04-16T20:16:17.446Z,102173.00
2023-04-16T20:18:46.269Z,102184.00
2023-04-16T20:21:17.418Z,102177.00
2023-04-16T20:23:46.690Z,102181.00
2023-04-16T20:26:16.721Z,102174.00
2023-04-16T20:28:46.895Z,102179.00
2023-04-16T20:31:15.640Z,102188.00
2023-04-16T20:33:44.254Z,102177.00
2023-04-16T20:36:14.721Z,102183.00
2023-04-16T20:38:46.140Z,102179.00
2023-04-16T20:41:20.369Z,102185.00
2023-04-16T20:43:54.911Z,102183.00
2023-04-16T20:46:24.367Z,102172.00
2023-04-16T20:48:53.453Z,102170.00
2023-04-16T20:51:22.113Z,102167.00
2023-04-16T20:53:52.193Z,102169.00
2023-04-16T20:56:21.006Z,102169.00
2023-04-16T20:58:53.181Z,102167.00
2023-04-16T21:01:21.829Z,102166.00
2023-04-16T21:03:50.637Z,102166.00
2023-04-16T21:06:22.532Z,102168.00
2023-04-16T21:08:51.238Z,102167.00
2023-04-16T21:11:19.949Z,102167.00
2023-04-16T21:13:48.500Z,102166.00
2023-04-16T21:16:18.630Z,102162.00
2023-04-16T21:18:47.320Z,102171.00
2023-04-16T21:21:15.954Z,102161.00
2023-04-16T21:23:44.612Z,102166.00
2023-04-16T21:26:13.224Z,102165.00
2023-04-16T21:28:41.881Z,102160.00
2023-04-16T21:31:10.540Z,102157.00
2023-04-16T21:33:40.637Z,102160.00
2023-04-16T21:36:10.182Z,102165.00
2023-04-16T21:38:38.892Z,102167.00
2023-04-16T21:41:07.567Z,102165.00
2023-04-16T21:43:36.236Z,102172.00
2023-04-16T21:46:04.868Z,102169.00
2023-04-16T21:48:33.509Z,102180.00
2023-04-16T21:51:06.701Z,102177.00
2023-04-16T21:53:36.944Z,102170.00
2023-04-16T21:56:05.818Z,102168.00
2023-04-16T21:58:34.370Z,102158.00
2023-04-16T22:01:03.062Z,102162.00
2023-04-16T22:03:33.557Z,102172.00
2023-04-16T22:06:04.259Z,102161.00
2023-04-16T22:08:33.275Z,102175.00
2023-04-16T22:11:03.804Z,102168.00
2023-04-16T22:13:33.359Z,102174.00
2023-04-16T22:16:02.532Z,102168.00
2023-04-16T22:18:32.957Z,102172.00
2023-04-16T22:21:03.810Z,102178.00
2023-04-16T22:23:32.645Z,102174.00
2023-04-16T22:26:02.767Z,102168.00
2023-04-16T22:28:31.500Z,102168.00
2023-04-16T22:31:00.124Z,102166.00
2023-04-16T22:33:31.715Z,102170.00
2023-04-16T22:36:01.352Z,102170.00
2023-04-16T22:38:31.425Z,102171.00
2023-04-16T22:41:00.072Z,102174.00
2023-04-16T22:43:28.806Z,102163.00
2023-04-16T22:46:04.871Z,102170.00
2023-04-16T22:48:36.326Z,102178.00
2023-04-16T22:51:05.570Z,102174.00
2023-04-16T22:53:36.824Z,102172.00
2023-04-16T22:56:05.714Z,102167.00
2023-04-16T22:58:34.329Z,102176.00
2023-04-16T23:01:03.225Z,102174.00
2023-04-16T23:03:32.235Z,102173.00
2023-04-16T23:06:01.079Z,102169.00
2023-04-16T23:08:29.699Z,102169.00
2023-04-16T23:10:59.796Z,102169.00
2023-04-16T23:13:28.350Z,102167.00
2023-04-16T23:15:57.083Z,102175.00
2023-04-16T23:18:25.885Z,102164.00
2023-04-16T23:20:54.989Z,102164.00
2023-04-16T23:23:23.597Z,102168.00
2023-04-16T23:25:54.426Z,102164.00
2023-04-16T23:28:24.473Z,102169.00
2023-04-16T23:30:53.840Z,102165.00
2023-04-16T23:33:22.756Z,102163.00
2023-04-16T23:35:51.454Z,102161.00
2023-04-16T23:38:20.139Z,102158.00
2023-04-16T23:40:48.723Z,102169.00
2023-04-16T23:43:17.372Z,102162.00
2023-04-16T23:45:47.404Z,102165.00
2023-04-16T23:48:16.060Z,102163.00
2023-04-16T23:50:44.675Z,102152.00
2023-04-16T23:53:13.271Z,102155.00
2023-04-16T23:55:41.946Z,102156.00
2023-04-16T23:58:10.628Z,102154.00
